sensor_id;sensor_type;location;lat;lon;timestamp;P1;durP1;ratioP1;P2;durP2;ratioP2
30539;SDS011;17321;46.312;4.776;2023-05-10T15:00:30;7.63;;;1.77;;
30539;SDS011;17321;46.312;4.776;2023-05-10T15:02:57;6.35;;;1.20;;
30539;SDS011;17321;46.312;4.776;2023-05-10T15:05:23;5.40;;;1.45;;
30539;SDS011;17321;46.312;4.776;2023-05-10T15:07:49;4.93;;;1.00;;
30539;SDS011;17321;46.312;4.776;2023-05-10T15:10:15;9.30;;;1.80;;
30539;SDS011;17321;46.312;4.776;2023-05-10T15:12:41;5.03;;;1.10;;
30539;SDS011;17321;46.312;4.776;2023-05-10T15:15:08;5.75;;;1.70;;
30539;SDS011;17321;46.312;4.776;2023-05-10T15:17:34;5.13;;;1.27;;
30539;SDS011;17321;46.312;4.776;2023-05-10T15:20:01;4.15;;;1.25;;
30539;SDS011;17321;46.312;4.776;2023-05-10T15:22:30;4.63;;;1.20;;
30539;SDS011;17321;46.312;4.776;2023-05-10T15:24:57;8.68;;;1.63;;
30539;SDS011;17321;46.312;4.776;2023-05-10T15:27:23;6.65;;;1.10;;
30539;SDS011;17321;46.312;4.776;2023-05-10T15:29:50;4.90;;;1.30;;
30539;SDS011;17321;46.312;4.776;2023-05-10T15:32:16;6.82;;;2.03;;
30539;SDS011;17321;46.312;4.776;2023-05-10T15:34:43;3.65;;;1.40;;
30539;SDS011;17321;46.312;4.776;2023-05-10T15:37:09;11.10;;;1.85;;
30539;SDS011;17321;46.312;4.776;2023-05-10T15:39:36;4.95;;;1.15;;
30539;SDS011;17321;46.312;4.776;2023-05-10T15:42:02;6.55;;;1.20;;
30539;SDS011;17321;46.312;4.776;2023-05-10T15:44:29;9.20;;;1.90;;
30539;SDS011;17321;46.312;4.776;2023-05-10T15:46:55;8.05;;;1.75;;
30539;SDS011;17321;46.312;4.776;2023-05-10T15:49:21;6.63;;;1.92;;
30539;SDS011;17321;46.312;4.776;2023-05-10T15:51:48;6.35;;;1.85;;
30539;SDS011;17321;46.312;4.776;2023-05-10T15:54:14;4.85;;;1.35;;
30539;SDS011;17321;46.312;4.776;2023-05-10T15:56:41;5.57;;;1.83;;
30539;SDS011;17321;46.312;4.776;2023-05-10T15:59:07;3.72;;;1.50;;
30539;SDS011;17321;46.312;4.776;2023-05-10T16:01:35;9.18;;;1.73;;
30539;SDS011;17321;46.312;4.776;2023-05-10T16:04:01;6.57;;;1.55;;
30539;SDS011;17321;46.312;4.776;2023-05-10T16:06:28;7.30;;;1.88;;
30539;SDS011;17321;46.312;4.776;2023-05-10T16:08:55;9.88;;;1.65;;
30539;SDS011;17321;46.312;4.776;2023-05-10T16:11:22;9.32;;;1.90;;
30539;SDS011;17321;46.312;4.776;2023-05-10T16:13:48;5.95;;;1.52;;
30539;SDS011;17321;46.312;4.776;2023-05-10T16:16:15;6.90;;;1.85;;
30539;SDS011;17321;46.312;4.776;2023-05-10T16:18:41;7.53;;;1.55;;
30539;SDS011;17321;46.312;4.776;2023-05-10T16:21:07;7.10;;;1.92;;
30539;SDS011;17321;46.312;4.776;2023-05-10T16:23:33;6.72;;;1.67;;
30539;SDS011;17321;46.312;4.776;2023-05-10T16:26:00;6.63;;;1.58;;
30539;SDS011;17321;46.312;4.776;2023-05-10T16:28:27;7.60;;;1.83;;
30539;SDS011;17321;46.312;4.776;2023-05-10T16:30:53;10.95;;;1.85;;
30539;SDS011;17321;46.312;4.776;2023-05-10T16:33:19;9.65;;;1.67;;
30539;SDS011;17321;46.312;4.776;2023-05-10T16:35:45;12.13;;;1.95;;
30539;SDS011;17321;46.312;4.776;2023-05-10T16:38:11;8.05;;;1.10;;
30539;SDS011;17321;46.312;4.776;2023-05-10T16:40:39;9.85;;;1.58;;
30539;SDS011;17321;46.312;4.776;2023-05-10T16:43:05;6.18;;;1.60;;
30539;SDS011;17321;46.312;4.776;2023-05-10T16:45:31;4.22;;;1.50;;
30539;SDS011;17321;46.312;4.776;2023-05-10T16:47:57;6.63;;;1.65;;
30539;SDS011;17321;46.312;4.776;2023-05-10T16:50:24;6.82;;;1.60;;
30539;SDS011;17321;46.312;4.776;2023-05-10T16:52:50;5.35;;;1.38;;
30539;SDS011;17321;46.312;4.776;2023-05-10T16:55:16;5.03;;;1.40;;
30539;SDS011;17321;46.312;4.776;2023-05-10T16:57:42;11.23;;;1.63;;
30539;SDS011;17321;46.312;4.776;2023-05-10T17:00:08;3.10;;;1.40;;
30539;SDS011;17321;46.312;4.776;2023-05-10T17:02:36;7.30;;;1.45;;
30539;SDS011;17321;46.312;4.776;2023-05-10T17:05:02;8.60;;;1.55;;
30539;SDS011;17321;46.312;4.776;2023-05-10T17:07:28;6.13;;;1.45;;
30539;SDS011;17321;46.312;4.776;2023-05-10T17:09:55;7.43;;;1.73;;
30539;SDS011;17321;46.312;4.776;2023-05-10T17:12:23;7.43;;;1.40;;
30539;SDS011;17321;46.312;4.776;2023-05-10T17:14:49;5.63;;;1.55;;
30539;SDS011;17321;46.312;4.776;2023-05-10T17:17:15;5.40;;;1.30;;
30539;SDS011;17321;46.312;4.776;2023-05-10T17:19:44;4.47;;;1.58;;
30539;SDS011;17321;46.312;4.776;2023-05-10T17:22:11;6.45;;;1.80;;
30539;SDS011;17321;46.312;4.776;2023-05-10T17:24:38;7.32;;;1.83;;
30539;SDS011;17321;46.312;4.776;2023-05-10T17:27:04;10.82;;;2.10;;
30539;SDS011;17321;46.312;4.776;2023-05-10T17:29:31;5.20;;;1.80;;
30539;SDS011;17321;46.312;4.776;2023-05-10T17:31:57;6.03;;;1.50;;
30539;SDS011;17321;46.312;4.776;2023-05-10T17:34:23;5.40;;;1.40;;
30539;SDS011;17321;46.312;4.776;2023-05-10T17:36:49;6.22;;;1.70;;
30539;SDS011;17321;46.312;4.776;2023-05-10T17:39:15;6.20;;;2.03;;
30539;SDS011;17321;46.312;4.776;2023-05-10T17:41:41;3.63;;;1.40;;
30539;SDS011;17321;46.312;4.776;2023-05-10T17:44:07;5.82;;;1.63;;
30539;SDS011;17321;46.312;4.776;2023-05-10T17:46:34;6.07;;;1.70;;
30539;SDS011;17321;46.312;4.776;2023-05-10T17:49:00;5.88;;;1.45;;
30539;SDS011;17321;46.312;4.776;2023-05-10T17:51:26;4.90;;;1.92;;
30539;SDS011;17321;46.312;4.776;2023-05-10T17:53:52;8.07;;;1.50;;
30539;SDS011;17321;46.312;4.776;2023-05-10T17:56:19;5.85;;;1.73;;
30539;SDS011;17321;46.312;4.776;2023-05-10T17:58:46;7.80;;;1.83;;
30539;SDS011;17321;46.312;4.776;2023-05-10T18:01:12;5.35;;;1.60;;
30539;SDS011;17321;46.312;4.776;2023-05-10T18:03:39;6.22;;;2.38;;
30539;SDS011;17321;46.312;4.776;2023-05-10T18:06:05;5.88;;;1.63;;
30539;SDS011;17321;46.312;4.776;2023-05-10T18:08:31;15.15;;;1.73;;
30539;SDS011;17321;46.312;4.776;2023-05-10T18:10:57;7.68;;;1.95;;
30539;SDS011;17321;46.312;4.776;2023-05-10T18:13:24;7.88;;;1.73;;
30539;SDS011;17321;46.312;4.776;2023-05-10T18:15:50;8.90;;;1.40;;
30539;SDS011;17321;46.312;4.776;2023-05-10T18:18:17;5.55;;;1.75;;
30539;SDS011;17321;46.312;4.776;2023-05-10T18:20:43;3.13;;;1.20;;
30539;SDS011;17321;46.312;4.776;2023-05-10T18:23:10;10.85;;;2.45;;
30539;SDS011;17321;46.312;4.776;2023-05-10T18:25:37;6.07;;;1.65;;
30539;SDS011;17321;46.312;4.776;2023-05-10T18:28:03;8.77;;;1.95;;
30539;SDS011;17321;46.312;4.776;2023-05-10T18:30:29;7.97;;;1.88;;
30539;SDS011;17321;46.312;4.776;2023-05-10T18:32:57;7.47;;;1.70;;
30539;SDS011;17321;46.312;4.776;2023-05-10T18:35:23;6.18;;;1.70;;
30539;SDS011;17321;46.312;4.776;2023-05-10T18:37:49;5.00;;;1.40;;
30539;SDS011;17321;46.312;4.776;2023-05-10T18:40:15;8.77;;;1.35;;
30539;SDS011;17321;46.312;4.776;2023-05-10T18:42:42;6.18;;;1.15;;
30539;SDS011;17321;46.312;4.776;2023-05-10T18:45:10;5.53;;;1.60;;
30539;SDS011;17321;46.312;4.776;2023-05-10T18:47:37;9.35;;;1.80;;
30539;SDS011;17321;46.312;4.776;2023-05-10T18:50:03;6.53;;;1.95;;
30539;SDS011;17321;46.312;4.776;2023-05-10T18:52:29;6.95;;;1.55;;
30539;SDS011;17321;46.312;4.776;2023-05-10T18:54:55;6.35;;;1.90;;
30539;SDS011;17321;46.312;4.776;2023-05-10T18:57:22;4.75;;;1.33;;
30539;SDS011;17321;46.312;4.776;2023-05-10T18:59:48;4.68;;;1.48;;
30539;SDS011;17321;46.312;4.776;2023-05-10T19:02:14;6.68;;;1.50;;
30539;SDS011;17321;46.312;4.776;2023-05-10T19:04:40;5.55;;;1.40;;
30539;SDS011;17321;46.312;4.776;2023-05-10T19:07:06;8.00;;;1.63;;
30539;SDS011;17321;46.312;4.776;2023-05-10T19:09:32;5.43;;;1.65;;
30539;SDS011;17321;46.312;4.776;2023-05-10T19:11:58;4.22;;;1.42;;
30539;SDS011;17321;46.312;4.776;2023-05-10T19:14:25;4.97;;;1.35;;
30539;SDS011;17321;46.312;4.776;2023-05-10T19:16:51;3.83;;;1.70;;
30539;SDS011;17321;46.312;4.776;2023-05-10T19:19:17;8.05;;;1.80;;
30539;SDS011;17321;46.312;4.776;2023-05-10T19:21:43;5.60;;;1.48;;
30539;SDS011;17321;46.312;4.776;2023-05-10T19:24:09;5.10;;;1.50;;
30539;SDS011;17321;46.312;4.776;2023-05-10T19:26:35;7.05;;;1.70;;
30539;SDS011;17321;46.312;4.776;2023-05-10T19:29:01;5.95;;;1.42;;
30539;SDS011;17321;46.312;4.776;2023-05-10T19:31:27;11.45;;;1.60;;
30539;SDS011;17321;46.312;4.776;2023-05-10T19:33:54;6.00;;;1.10;;
30539;SDS011;17321;46.312;4.776;2023-05-10T19:36:20;6.40;;;1.70;;
30539;SDS011;17321;46.312;4.776;2023-05-10T19:38:46;6.47;;;1.52;;
30539;SDS011;17321;46.312;4.776;2023-05-10T19:41:13;6.43;;;2.00;;
30539;SDS011;17321;46.312;4.776;2023-05-10T19:43:39;4.65;;;1.23;;
30539;SDS011;17321;46.312;4.776;2023-05-10T19:51:01;4.28;;;0.82;;
30539;SDS011;17321;46.312;4.776;2023-05-10T19:53:28;7.57;;;1.63;;
30539;SDS011;17321;46.312;4.776;2023-05-10T19:55:55;9.73;;;1.77;;
30539;SDS011;17321;46.312;4.776;2023-05-10T19:58:21;8.07;;;1.50;;
30539;SDS011;17321;46.312;4.776;2023-05-10T20:00:48;5.63;;;1.48;;
30539;SDS011;17321;46.312;4.776;2023-05-10T20:03:15;5.47;;;1.77;;
30539;SDS011;17321;46.312;4.776;2023-05-10T20:05:41;6.55;;;1.73;;
30539;SDS011;17321;46.312;4.776;2023-05-10T20:08:07;5.45;;;1.67;;
30539;SDS011;17321;46.312;4.776;2023-05-10T20:10:33;3.78;;;1.48;;
30539;SDS011;17321;46.312;4.776;2023-05-10T20:12:59;6.68;;;2.03;;
30539;SDS011;17321;46.312;4.776;2023-05-10T20:15:27;8.13;;;1.83;;
30539;SDS011;17321;46.312;4.776;2023-05-10T20:17:53;7.40;;;1.70;;
30539;SDS011;17321;46.312;4.776;2023-05-10T20:20:20;7.60;;;1.75;;
30539;SDS011;17321;46.312;4.776;2023-05-10T20:22:46;3.35;;;1.48;;
30539;SDS011;17321;46.312;4.776;2023-05-10T20:25:13;4.97;;;1.75;;
30539;SDS011;17321;46.312;4.776;2023-05-10T20:27:39;7.28;;;1.45;;
30539;SDS011;17321;46.312;4.776;2023-05-10T20:30:06;3.22;;;1.20;;
30539;SDS011;17321;46.312;4.776;2023-05-10T20:32:32;6.05;;;1.50;;
30539;SDS011;17321;46.312;4.776;2023-05-10T20:34:59;4.80;;;1.33;;
30539;SDS011;17321;46.312;4.776;2023-05-10T20:37:25;7.75;;;1.52;;
30539;SDS011;17321;46.312;4.776;2023-05-10T20:39:52;5.38;;;1.48;;
30539;SDS011;17321;46.312;4.776;2023-05-10T20:42:18;5.07;;;1.20;;
30539;SDS011;17321;46.312;4.776;2023-05-10T20:44:44;3.60;;;1.45;;
30539;SDS011;17321;46.312;4.776;2023-05-10T20:47:12;4.07;;;1.40;;
30539;SDS011;17321;46.312;4.776;2023-05-10T20:49:38;3.20;;;1.00;;
30539;SDS011;17321;46.312;4.776;2023-05-10T20:52:04;3.38;;;1.05;;
30539;SDS011;17321;46.312;4.776;2023-05-10T20:54:31;6.32;;;1.33;;
30539;SDS011;17321;46.312;4.776;2023-05-10T20:56:57;7.53;;;1.30;;
30539;SDS011;17321;46.312;4.776;2023-05-10T20:59:23;5.15;;;1.38;;
30539;SDS011;17321;46.312;4.776;2023-05-10T21:01:49;5.85;;;1.33;;
30539;SDS011;17321;46.312;4.776;2023-05-10T21:04:16;4.53;;;1.30;;
30539;SDS011;17321;46.312;4.776;2023-05-10T21:06:42;3.55;;;1.15;;
30539;SDS011;17321;46.312;4.776;2023-05-10T21:09:08;5.18;;;0.90;;
30539;SDS011;17321;46.312;4.776;2023-05-10T21:11:34;7.47;;;1.00;;
30539;SDS011;17321;46.312;4.776;2023-05-10T21:14:02;3.13;;;0.90;;
30539;SDS011;17321;46.312;4.776;2023-05-10T21:16:28;4.35;;;0.90;;
30539;SDS011;17321;46.312;4.776;2023-05-10T21:18:54;6.75;;;1.40;;
30539;SDS011;17321;46.312;4.776;2023-05-10T21:21:27;4.00;;;1.33;;
30539;SDS011;17321;46.312;4.776;2023-05-10T21:23:54;1.15;;;0.77;;
30539;SDS011;17321;46.312;4.776;2023-05-10T21:26:20;3.10;;;0.73;;
30539;SDS011;17321;46.312;4.776;2023-05-10T21:28:47;3.38;;;0.70;;
30539;SDS011;17321;46.312;4.776;2023-05-10T21:31:13;10.35;;;1.35;;
30539;SDS011;17321;46.312;4.776;2023-05-10T21:33:40;4.82;;;1.13;;
30539;SDS011;17321;46.312;4.776;2023-05-10T21:36:06;2.38;;;0.70;;
30539;SDS011;17321;46.312;4.776;2023-05-10T21:38:32;1.98;;;0.95;;
30539;SDS011;17321;46.312;4.776;2023-05-10T21:40:58;2.15;;;0.95;;
30539;SDS011;17321;46.312;4.776;2023-05-10T21:43:24;3.53;;;0.82;;
30539;SDS011;17321;46.312;4.776;2023-05-10T21:45:50;6.45;;;1.23;;
30539;SDS011;17321;46.312;4.776;2023-05-10T21:48:16;2.45;;;0.73;;
30539;SDS011;17321;46.312;4.776;2023-05-10T21:50:43;4.97;;;1.02;;
30539;SDS011;17321;46.312;4.776;2023-05-10T21:53:11;3.28;;;1.00;;
30539;SDS011;17321;46.312;4.776;2023-05-10T21:55:37;4.28;;;0.98;;
30539;SDS011;17321;46.312;4.776;2023-05-10T21:58:03;2.40;;;1.10;;
30539;SDS011;17321;46.312;4.776;2023-05-10T22:00:30;1.55;;;0.90;;
30539;SDS011;17321;46.312;4.776;2023-05-10T22:02:56;1.30;;;0.68;;
30539;SDS011;17321;46.312;4.776;2023-05-10T22:05:22;5.07;;;0.80;;
30539;SDS011;17321;46.312;4.776;2023-05-10T22:07:48;8.70;;;0.80;;
30539;SDS011;17321;46.312;4.776;2023-05-10T22:10:14;4.25;;;0.93;;
30539;SDS011;17321;46.312;4.776;2023-05-10T22:12:40;4.35;;;0.95;;
30539;SDS011;17321;46.312;4.776;2023-05-10T22:15:07;4.53;;;0.68;;
30539;SDS011;17321;46.312;4.776;2023-05-10T22:17:33;3.28;;;0.75;;
30539;SDS011;17321;46.312;4.776;2023-05-10T22:19:59;1.90;;;0.93;;
30539;SDS011;17321;46.312;4.776;2023-05-10T22:22:25;4.82;;;1.27;;
30539;SDS011;17321;46.312;4.776;2023-05-10T22:24:51;3.13;;;0.93;;
30539;SDS011;17321;46.312;4.776;2023-05-10T22:27:17;2.47;;;0.85;;
30539;SDS011;17321;46.312;4.776;2023-05-10T22:29:43;2.25;;;0.70;;
30539;SDS011;17321;46.312;4.776;2023-05-10T22:32:10;3.33;;;0.98;;
30539;SDS011;17321;46.312;4.776;2023-05-10T22:34:36;2.47;;;0.80;;
30539;SDS011;17321;46.312;4.776;2023-05-10T22:37:02;1.98;;;0.60;;
30539;SDS011;17321;46.312;4.776;2023-05-10T22:39:28;1.85;;;0.70;;
30539;SDS011;17321;46.312;4.776;2023-05-10T22:41:54;4.40;;;0.77;;
30539;SDS011;17321;46.312;4.776;2023-05-10T22:44:21;2.13;;;0.45;;
30539;SDS011;17321;46.312;4.776;2023-05-10T22:46:47;3.05;;;0.90;;
30539;SDS011;17321;46.312;4.776;2023-05-10T22:49:13;4.18;;;0.88;;
30539;SDS011;17321;46.312;4.776;2023-05-10T22:51:39;1.83;;;0.63;;
30539;SDS011;17321;46.312;4.776;2023-05-10T22:54:05;2.15;;;0.80;;
30539;SDS011;17321;46.312;4.776;2023-05-10T22:56:31;3.58;;;1.02;;
30539;SDS011;17321;46.312;4.776;2023-05-10T22:58:58;1.13;;;0.50;;
30539;SDS011;17321;46.312;4.776;2023-05-10T23:01:24;1.48;;;0.68;;
30539;SDS011;17321;46.312;4.776;2023-05-10T23:03:50;4.78;;;0.73;;
30539;SDS011;17321;46.312;4.776;2023-05-10T23:06:16;2.67;;;0.90;;
30539;SDS011;17321;46.312;4.776;2023-05-10T23:08:42;1.80;;;0.80;;
30539;SDS011;17321;46.312;4.776;2023-05-10T23:11:09;2.65;;;0.65;;
30539;SDS011;17321;46.312;4.776;2023-05-10T23:13:35;3.60;;;0.60;;
30539;SDS011;17321;46.312;4.776;2023-05-10T23:16:04;2.83;;;0.60;;
30539;SDS011;17321;46.312;4.776;2023-05-10T23:18:30;1.60;;;0.52;;
30539;SDS011;17321;46.312;4.776;2023-05-10T23:20:57;4.90;;;0.85;;
30539;SDS011;17321;46.312;4.776;2023-05-10T23:23:23;3.92;;;0.93;;
30539;SDS011;17321;46.312;4.776;2023-05-10T23:25:49;4.20;;;0.73;;
30539;SDS011;17321;46.312;4.776;2023-05-10T23:28:16;2.05;;;0.88;;
30539;SDS011;17321;46.312;4.776;2023-05-10T23:30:42;3.67;;;0.75;;
30539;SDS011;17321;46.312;4.776;2023-05-10T23:33:08;2.00;;;0.68;;
30539;SDS011;17321;46.312;4.776;2023-05-10T23:35:34;2.30;;;0.77;;
30539;SDS011;17321;46.312;4.776;2023-05-10T23:38:00;3.30;;;0.95;;
30539;SDS011;17321;46.312;4.776;2023-05-10T23:40:27;2.65;;;0.60;;
30539;SDS011;17321;46.312;4.776;2023-05-10T23:42:53;2.42;;;0.45;;
30539;SDS011;17321;46.312;4.776;2023-05-10T23:45:19;4.00;;;0.70;;
30539;SDS011;17321;46.312;4.776;2023-05-10T23:47:45;1.60;;;0.55;;
30539;SDS011;17321;46.312;4.776;2023-05-10T23:50:11;2.63;;;0.70;;
30539;SDS011;17321;46.312;4.776;2023-05-10T23:52:37;7.22;;;0.85;;
30539;SDS011;17321;46.312;4.776;2023-05-10T23:55:03;3.42;;;0.80;;
30539;SDS011;17321;46.312;4.776;2023-05-10T23:57:30;3.03;;;0.70;;
30539;SDS011;17321;46.312;4.776;2023-05-10T23:59:56;1.60;;;0.50;;
